Nearby AIRPORT Reports

 

KATT - Austin/Mabry, Texas, USA
Distance from station: NE 13mi, 20km
Updated: Tue, 16-Apr-2024 5:51am CDT
Overcast
Overcast
 Wind from calm
Wind: Calm
Temperature: 72°F, 22°C
Dew Point: 66°F, 19°C
Humidity: 83%
Barometer: 29.83 inHg, 1010.2 hPa
Clouds: Overcast
Visibility: 10 miles, 16 km
Cloud details: Overcast 1400 ft
2024/04/16 10:51 KATT 161051Z AUTO 00000KT 10SM OVC014 22/19 A2983 RMK AO2 SLP091 T02220189 $
KAUS - Austin/Bergstrom, Texas, USA
Distance from station: E 15mi, 25km
Updated: Tue, 16-Apr-2024 5:53am CDT
Overcast
Overcast
 Wind from calm
Wind: Calm
Temperature: 72°F, 22°C
Dew Point: 68°F, 20°C
Humidity: 88%
Barometer: 29.81 inHg, 1009.5 hPa
Clouds: Overcast
Visibility: 10 miles, 16 km
Cloud details: Overcast 1400 ft
2024/04/16 10:53 KAUS 161053Z 00000KT 10SM OVC014 22/20 A2981 RMK AO2 SLP086 T02170200
 
KHYI - San Marcos, Texas, USA
Distance from station: S 23mi, 37km
Updated: Tue, 16-Apr-2024 5:56am CDT
Overcast
Overcast
 Wind from S
Wind: S 6 mph, 9 km/h
Temperature: 72°F, 22°C
Dew Point: 70°F, 21°C
Humidity: 94%
Barometer: 29.81 inHg, 1009.5 hPa
Clouds: Overcast
Visibility: 10 miles, 16 km
Cloud details: Overcast 1400 ft
2024/04/16 10:56 KHYI 161056Z AUTO 17005KT 10SM OVC014 22/21 A2981 RMK AO2 SLP087 T02220206
KGTU - Georgetown, Texas, USA
Distance from station: NNE 36mi, 58km
Updated: Tue, 16-Apr-2024 5:56am CDT
Overcast
Overcast
 Wind from SW
Wind: SW 5 mph, 7 km/h
Temperature: 70°F, 21°C
Dew Point: 66°F, 19°C
Humidity: 88%
Barometer: 29.87 inHg, 1011.5 hPa
Clouds: Overcast
Visibility: 8 miles, 13 km
Cloud details: Overcast 1400 ft
2024/04/16 10:56 KGTU 161056Z AUTO 22004KT 8SM OVC014 21/19 A2987 RMK AO2 SLP108 T02110194
 
KBMQ - Burnet, Texas, USA
Distance from station: NNW 40mi, 65km
Updated: Tue, 16-Apr-2024 5:53am CDT
Mist, Overcast
Mist, Overcast
 Wind from calm
Wind: Calm
Temperature: 70°F, 21°C
Dew Point: 68°F, 20°C
Humidity: 94%
Barometer: 29.86 inHg, 1011.2 hPa
Summary: Mist
Clouds: Overcast
Visibility: 6 miles, 10 km
Cloud details: Overcast 1800 ft
2024/04/16 10:53 KBMQ 161053Z AUTO 00000KT 6SM BR OVC018 21/20 A2986 RMK AO2 SLP093 T02110200
KT82 - Fredericksburg, Texas, USA
Distance from station: W 59mi, 94km
Updated: Tue, 16-Apr-2024 5:55am CDT
Drizzle, Overcast
Drizzle, Overcast
 Wind from calm
Wind: Calm
Temperature: 68°F, 20°C
Dew Point: 68°F, 20°C
Humidity: 100%
Barometer: 29.86 inHg, 1011.2 hPa
Summary: Drizzle
Clouds: Overcast
Visibility: 2 miles, 3 km
Cloud details: Overcast 500 ft
2024/04/16 10:55 KT82 161055Z AUTO 00000KT 2SM DZ OVC005 20/20 A2986 RMK AO2 T02000195
 
KGTU - Georgetown, Texas, USA
Distance from station: NNE 36mi, 58km
Updated: Tue, 16-Apr-2024 5:56am CDT
Overcast
Overcast
 Wind from SW
Wind: SW 5 mph, 7 km/h
Temperature: 70°F, 21°C
Dew Point: 66°F, 19°C
Humidity: 88%
Barometer: 29.87 inHg, 1011.5 hPa
Clouds: Overcast
Visibility: 8 miles, 13 km
Cloud details: Overcast 1400 ft
2024/04/16 10:56 KGTU 161056Z AUTO 22004KT 8SM OVC014 21/19 A2987 RMK AO2 SLP108 T02110194
KAQO - Llano, Texas, USA
Distance from station: NW 59mi, 95km
Updated: Tue, 16-Apr-2024 5:55am CDT
Mist, Overcast
Mist, Overcast
 Wind from SE
Wind: SE 5 mph, 7 km/h
Temperature: 70°F, 21°C
Dew Point: 68°F, 20°C
Humidity: 94%
Barometer: 29.82 inHg, 1009.8 hPa
Summary: Mist
Clouds: Overcast
Visibility: 1 1/4 miles, 2 km
Cloud details: Overcast 300 ft
2024/04/16 10:55 KAQO 161055Z AUTO 13004KT 1 1/4SM BR OVC003 21/20 A2982 RMK AO2
 
KERV - Kerrville, Texas, USA
Distance from station: WSW 70mi, 113km
Updated: Tue, 16-Apr-2024 5:55am CDT
Heavy drizzle, Overcast
Heavy drizzle, Overcast
 Wind from calm
Wind: Calm
Temperature: 68°F, 20°C
Dew Point: 68°F, 20°C
Humidity: 100%
Barometer: 29.85 inHg, 1010.8 hPa
Summary: Heavy Drizzle
Clouds: Overcast
Visibility: 1 1/2 miles, 2.4 km
Cloud details: Overcast 400 ft
2024/04/16 10:55 KERV 161055Z AUTO 00000KT 1 1/2SM +DZ OVC004 20/20 A2985 RMK AO2 P0002 T02010197
KSAT - San Antonio, Texas, USA
Distance from station: SW 56mi, 91km
Updated: Tue, 16-Apr-2024 5:51am CDT
Overcast
Overcast
 Wind from S
Wind: S 9 mph, 15 km/h
Temperature: 72°F, 22°C
Dew Point: 66°F, 19°C
Humidity: 83%
Barometer: 29.80 inHg, 1009.1 hPa
Clouds: Overcast
Visibility: 10 miles, 16 km
Cloud details: Overcast 1500 ft
2024/04/16 10:51 KSAT 161051Z 17008KT 10SM OVC015 22/19 A2980 RMK AO2 SLP073 T02220194
 
K11R - Brenham, Texas, USA
Distance from station: E 94mi, 151km
Updated: Tue, 16-Apr-2024 5:55am CDT
Overcast
Overcast
 Wind from SSE
Wind: SSE 8 mph, 13 km/h
Temperature: 73°F, 23°C
Dew Point: 68°F, 20°C
Humidity: 83%
Barometer: 29.82 inHg, 1009.8 hPa
Clouds: Overcast
Visibility: 10 miles, 16 km
Cloud details: Overcast 1500 ft
2024/04/16 10:55 K11R 161055Z AUTO 15007KT 10SM OVC015 23/20 A2982 RMK AO2 T02290203
KTME - Houston Exec, Texas, USA
Distance from station: ESE 125mi, 201km
Updated: Tue, 16-Apr-2024 5:55am CDT

 Wind from S
Wind: S 13 mph, 20 km/h, Gust: 18 mph, 30 km/h
Temperature: 72°F, 22°C
Dew Point: 72°F, 22°C
Humidity: 100%
Barometer: 29.83 inHg, 1010.2 hPa
Visibility: 7 miles, 11 km
2024/04/16 10:55 KTME 161055Z AUTO 17011G16KT 7SM 22/22 A2983 RMK AO2